Malmesbury, United Kingdom
Current Conditions -  °F | °C
As of 10:03 PM on Friday 24 Oct 2014 (Local Time) from EGVA Reporting Station
Scattered Clouds Scattered Clouds  
Wind Chill: 43°   Ceiling: Unl
Heat Index: 46°   Visibility: 6mi
Dew Point: 45°   Wind: 7mph
Humidity: 93%   Direction: 260°W
Pressure: 29.97"   Gusts: NA
Location:  51.58°N, 2.1°W
Report Text: EGVA 242103Z AUTO 26006KT 9999 SCT044 08/07 A2997 RMK AO2
Loading
Personal Weather Stations






























Interactive Weather Map
Tropical Storm Tracking
New forecast layout! Learn more

10-Day Weather Forecast

Advertisements
Track Severe Weather on mobile